Arlat Virtual - Aerolinea Argentina Latinoamericana Virtual


 INFORMACIÓN METAR y TAF
METAR FOR SARI
ADDS - METARS form results

(0443 UTC 04 August 2020)
Data provider http://aviationweather.gov/metar/data/
 
METAR text: SARI 040400Z 05004KT CAVOK 16/13 Q1023
Conditions at: SARI (IGUAZU/CATARATAS, AR) observed 0400 UTC 04 August 2020
Temperature: 16.0°C (61°F)
Dewpoint: 13.0°C (55°F) [RH = 82%]
Pressure (altimeter): 30.21 inches Hg (1023.0 mb)
Winds: from the NE (50 degrees) at 5 MPH (4 knots; 2.1 m/s)
Visibility: 6 or more miles (10+ km)
Ceiling: ceiling and visibility are OK
Clouds: unknown
Weather: no significant weather observed at this time

Forecast for: SARI (IGUAZU/CATARATAS, AR)
Text: TAF SARI 032300Z 0400/0424 05005KT CAVOK TX30/0418Z TN14/0410Z
Forecast period: 0000 UTC 04 August 2020 to 0000 UTC 05 August 2020
Forecast type: FROM: standard forecast or significant change
Winds: from the NE (50 degrees) at 6 MPH (5 knots; 2.6 m/s)
Visibility: 6 or more miles 10+ km)
Ceiling: unknown
Clouds: missing
Weather: no significant weather forecast for this period

 MAPA DE AEROPUERTO

 INFORMACIÓN DE PISTA
Pista 13 Longitud 10827 ft Ancho 148 ft
Elevación 908 ft Umbral desplazado 0 ft Rumbo de pista 115
Pista 31 Longitud 10827 ft Ancho 148 ft
Elevación 916 ft Umbral desplazado 0 ft Rumbo de pista 295

 FRECUANCIAS DEL AEROPUERTO
Tipo TWR Nombre TWR/APP Frecuencia 120.7 MHZ

 RADIO AYUDAS DEL AEROPUERTO
Tipo VOR-DME Nombre Cataratas Del Iguazu Frecuencia 114100 KHZ